Time;durP1;ratioP1;P1;durP2;ratioP2;P2;SDS_P1;SDS_P2;PMS_P1;PMS_P2;Temp;Humidity;BMP_temperature;BMP_pressure;BME280_temperature;BME280_humidity;BME280_pressure;Samples;Min_cycle;Max_cycle;Signal;HPM_P1;HPM_P2
2021/05/15 00:01:03;;;;;;;23.20;14.37;;;7.60;99.90;;;;;;5080667;28;20563;-50
2021/05/15 00:03:30;;;;;;;28.50;14.83;;;7.60;99.90;;;;;;5080062;28;20247;-48
2021/05/15 00:05:57;;;;;;;23.63;14.03;;;7.60;99.90;;;;;;5068249;28;20694;-52
2021/05/15 00:08:23;;;;;;;19.63;12.53;;;7.60;99.90;;;;;;5077935;28;20202;-46
2021/05/15 00:10:49;;;;;;;27.60;14.90;;;7.70;99.90;;;;;;5082531;28;20198;-52
2021/05/15 00:13:16;;;;;;;26.30;14.87;;;7.70;99.90;;;;;;5082711;28;20198;-47
2021/05/15 00:15:42;;;;;;;25.80;14.00;;;7.70;99.90;;;;;;5084037;28;20550;-51
2021/05/15 00:18:08;;;;;;;29.93;16.03;;;7.70;99.90;;;;;;5073242;28;20190;-51
2021/05/15 00:20:35;;;;;;;25.03;14.07;;;7.80;99.90;;;;;;5082693;28;20196;-51
2021/05/15 00:23:01;;;;;;;25.10;14.53;;;7.80;99.90;;;;;;5064358;28;20217;-50
2021/05/15 00:25:28;;;;;;;24.87;14.67;;;7.80;99.90;;;;;;5077749;28;20595;-50
2021/05/15 00:27:54;;;;;;;25.97;15.17;;;7.80;99.90;;;;;;5080558;28;20248;-49
2021/05/15 00:30:20;;;;;;;31.03;15.13;;;7.80;99.90;;;;;;5080612;28;20196;-53
2021/05/15 00:32:46;;;;;;;32.43;15.70;;;7.90;99.90;;;;;;5085317;28;20202;-53
2021/05/15 00:35:13;;;;;;;27.93;14.50;;;7.90;99.90;;;;;;5079708;28;20962;-46
2021/05/15 00:37:40;;;;;;;21.70;12.63;;;7.90;99.90;;;;;;5072009;28;20205;-48
2021/05/15 00:40:08;;;;;;;18.67;11.63;;;7.90;99.90;;;;;;5075358;28;20296;-45
2021/05/15 00:42:35;;;;;;;19.07;12.30;;;7.90;99.90;;;;;;5085945;28;20201;-48
2021/05/15 00:45:03;;;;;;;26.60;13.57;;;7.90;99.90;;;;;;5082770;28;20222;-47
2021/05/15 00:47:29;;;;;;;28.33;12.90;;;7.90;99.90;;;;;;5086377;28;20201;-49
2021/05/15 00:49:55;;;;;;;23.47;13.63;;;7.90;99.90;;;;;;5079512;28;20648;-46
2021/05/15 00:52:22;;;;;;;24.40;13.43;;;7.90;99.90;;;;;;5070500;28;22516;-49
2021/05/15 00:54:51;;;;;;;21.93;13.10;;;8.00;99.90;;;;;;5079976;28;20755;-52
2021/05/15 00:57:18;;;;;;;21.30;13.47;;;8.00;99.90;;;;;;5081402;28;20193;-46
2021/05/15 00:59:44;;;;;;;21.77;12.63;;;8.00;99.90;;;;;;5085966;28;20202;-49
2021/05/15 01:02:12;;;;;;;22.13;12.87;;;8.00;99.90;;;;;;5083685;28;20192;-51
2021/05/15 01:04:39;;;;;;;19.70;13.17;;;8.00;99.90;;;;;;5087081;28;20695;-47
2021/05/15 01:07:08;;;;;;;22.33;11.97;;;8.00;99.90;;;;;;5078236;28;20194;-51
2021/05/15 01:09:35;;;;;;;17.77;12.07;;;8.10;99.90;;;;;;5071641;28;20294;-49
2021/05/15 01:12:04;;;;;;;22.43;13.20;;;8.00;99.90;;;;;;5077104;28;20197;-52
2021/05/15 01:14:31;;;;;;;22.17;12.23;;;8.10;99.90;;;;;;5085315;28;20237;-46
2021/05/15 01:16:57;;;;;;;24.50;12.93;;;8.10;99.90;;;;;;5108562;27;20205;-48
2021/05/15 01:19:23;;;;;;;24.93;13.20;;;8.10;99.90;;;;;;5080489;28;20675;-46
2021/05/15 01:21:50;;;;;;;24.77;13.63;;;8.10;99.90;;;;;;5078117;28;20237;-47
2021/05/15 01:24:16;;;;;;;20.63;13.03;;;8.10;99.90;;;;;;5067177;28;21078;-45
2021/05/15 01:26:42;;;;;;;23.07;12.50;;;8.10;99.90;;;;;;5078581;28;20648;-46
2021/05/15 01:29:08;;;;;;;30.97;13.83;;;8.10;99.90;;;;;;5079367;28;20934;-48
2021/05/15 01:31:36;;;;;;;19.40;11.40;;;8.20;99.90;;;;;;5084777;28;20209;-46
2021/05/15 01:34:03;;;;;;;23.17;13.50;;;8.20;99.90;;;;;;5080760;28;20217;-46
2021/05/15 01:36:32;;;;;;;23.10;12.83;;;8.10;99.90;;;;;;5086060;28;20227;-51
2021/05/15 01:38:59;;;;;;;20.60;11.80;;;8.10;99.90;;;;;;5065841;28;20297;-49
2021/05/15 01:41:25;;;;;;;24.90;13.20;;;8.10;99.90;;;;;;5084835;28;20666;-50
2021/05/15 01:43:51;;;;;;;21.07;12.30;;;8.10;99.90;;;;;;5084988;28;20221;-49
2021/05/15 01:46:17;;;;;;;24.37;12.60;;;8.10;99.90;;;;;;5084649;28;20232;-49
2021/05/15 01:48:43;;;;;;;18.63;12.87;;;8.10;99.90;;;;;;5084194;28;20199;-51
2021/05/15 01:51:11;;;;;;;21.13;11.97;;;8.10;99.90;;;;;;5081260;28;20179;-47
2021/05/15 01:53:40;;;;;;;25.80;13.00;;;8.10;99.90;;;;;;5079314;28;20210;-46
2021/05/15 01:56:09;;;;;;;22.50;12.70;;;8.20;99.90;;;;;;5057627;28;20818;-45
2021/05/15 01:58:35;;;;;;;21.73;12.87;;;8.10;99.90;;;;;;5071942;28;20206;-53
2021/05/15 02:01:02;;;;;;;19.90;11.57;;;8.10;99.90;;;;;;5071508;28;20194;-50
2021/05/15 02:03:29;;;;;;;18.70;12.07;;;8.10;99.90;;;;;;5084578;28;20194;-50
2021/05/15 02:05:55;;;;;;;18.70;11.57;;;8.20;99.90;;;;;;5081423;28;20263;-47
2021/05/15 02:08:22;;;;;;;21.23;11.93;;;8.10;99.90;;;;;;5079068;28;20217;-49
2021/05/15 02:10:50;;;;;;;21.63;11.47;;;8.10;99.90;;;;;;5068304;28;20210;-47
2021/05/15 02:13:18;;;;;;;23.13;12.10;;;8.10;99.90;;;;;;5082462;28;20185;-48
2021/05/15 02:15:46;;;;;;;27.90;13.30;;;8.20;99.90;;;;;;5079293;28;20301;-49
2021/05/15 02:18:13;;;;;;;19.73;11.90;;;8.10;99.90;;;;;;5079559;28;20257;-49
2021/05/15 02:20:41;;;;;;;21.07;11.70;;;8.10;99.90;;;;;;5072710;28;20221;-47
2021/05/15 02:23:07;;;;;;;21.20;12.63;;;8.10;99.90;;;;;;5081363;28;20209;-48
2021/05/15 02:25:33;;;;;;;24.97;12.57;;;8.10;99.90;;;;;;5078493;28;20623;-48
2021/05/15 02:28:00;;;;;;;18.60;10.70;;;8.10;99.90;;;;;;5064872;28;20198;-47
2021/05/15 02:30:28;;;;;;;20.50;11.33;;;8.10;99.90;;;;;;5076745;28;20214;-51
2021/05/15 02:32:54;;;;;;;17.33;11.37;;;8.10;99.90;;;;;;5078091;28;20797;-50
2021/05/15 02:35:21;;;;;;;20.27;11.10;;;8.10;99.90;;;;;;5082032;28;20221;-51
2021/05/15 02:37:48;;;;;;;26.33;12.90;;;8.10;99.90;;;;;;5078933;28;20198;-53
2021/05/15 02:40:15;;;;;;;19.67;11.03;;;8.10;99.90;;;;;;5075609;28;20214;-52
2021/05/15 02:42:41;;;;;;;22.30;11.43;;;8.10;99.90;;;;;;5066120;28;20260;-53
2021/05/15 02:45:10;;;;;;;20.57;11.97;;;8.10;99.90;;;;;;5080538;28;20213;-47
2021/05/15 02:47:37;;;;;;;19.27;11.97;;;8.10;99.90;;;;;;5078363;28;20197;-54
2021/05/15 02:50:05;;;;;;;20.60;11.57;;;8.10;99.90;;;;;;5079805;28;20201;-46
2021/05/15 02:52:31;;;;;;;18.30;11.80;;;8.10;99.90;;;;;;5083690;28;20197;-47
2021/05/15 02:54:57;;;;;;;18.77;11.90;;;8.10;99.90;;;;;;5073720;28;20225;-45
2021/05/15 02:57:23;;;;;;;18.13;11.03;;;8.10;99.90;;;;;;5055739;28;20209;-45
2021/05/15 02:59:49;;;;;;;18.60;11.27;;;8.10;99.90;;;;;;5080854;28;20206;-49
2021/05/15 03:02:16;;;;;;;18.83;11.80;;;8.10;99.90;;;;;;5075651;28;20194;-52
2021/05/15 03:04:43;;;;;;;20.87;12.80;;;8.10;99.90;;;;;;5075386;28;20712;-48
2021/05/15 03:07:09;;;;;;;22.53;11.80;;;8.10;99.90;;;;;;5074746;28;20215;-52
2021/05/15 03:09:35;;;;;;;22.70;12.77;;;8.10;99.90;;;;;;5079753;28;20873;-51
2021/05/15 03:12:01;;;;;;;18.60;11.40;;;8.10;99.90;;;;;;5072094;28;20198;-54
2021/05/15 03:14:27;;;;;;;19.97;12.17;;;8.10;99.90;;;;;;5067234;28;20217;-47
2021/05/15 03:16:53;;;;;;;17.97;11.67;;;8.10;99.90;;;;;;5077377;28;20197;-52
2021/05/15 03:19:19;;;;;;;20.77;12.03;;;8.10;99.90;;;;;;5072917;28;20612;-52
2021/05/15 03:21:46;;;;;;;19.90;11.40;;;8.10;99.90;;;;;;5083015;28;20217;-50
2021/05/15 03:24:12;;;;;;;22.67;11.43;;;8.10;99.90;;;;;;5080339;28;20329;-51
2021/05/15 03:26:39;;;;;;;19.43;11.60;;;8.10;99.90;;;;;;5062507;28;20226;-50
2021/05/15 03:29:05;;;;;;;19.27;10.93;;;8.10;99.90;;;;;;5061117;28;20216;-48
2021/05/15 03:31:31;;;;;;;19.03;11.80;;;8.10;99.90;;;;;;5074230;28;20279;-48
2021/05/15 03:33:57;;;;;;;19.03;11.30;;;8.10;99.90;;;;;;5074295;28;20230;-49
2021/05/15 03:36:24;;;;;;;22.23;12.00;;;8.10;99.90;;;;;;5073420;28;20216;-50
2021/05/15 03:38:51;;;;;;;24.33;11.83;;;8.10;99.90;;;;;;5075483;28;20186;-50
2021/05/15 03:41:17;;;;;;;20.53;12.50;;;8.10;99.90;;;;;;5078312;28;20667;-47
2021/05/15 03:43:43;;;;;;;19.00;12.17;;;8.10;99.90;;;;;;5059254;28;20214;-49
2021/05/15 03:46:10;;;;;;;19.10;10.87;;;8.10;99.90;;;;;;5078642;28;20583;-46
2021/05/15 03:48:36;;;;;;;21.10;11.43;;;8.10;99.90;;;;;;5067274;28;20198;-51
2021/05/15 03:51:02;;;;;;;17.37;11.87;;;8.10;99.90;;;;;;5077426;28;20541;-46
2021/05/15 03:53:28;;;;;;;19.57;12.07;;;8.10;99.90;;;;;;5074621;28;20206;-49
2021/05/15 03:55:55;;;;;;;20.30;11.07;;;8.10;99.90;;;;;;5069386;28;20516;-50
2021/05/15 03:58:21;;;;;;;21.43;12.53;;;8.20;99.90;;;;;;5067604;28;20210;-50
2021/05/15 04:00:48;;;;;;;19.77;11.10;;;8.20;99.90;;;;;;5076856;28;20197;-49
2021/05/15 04:03:14;;;;;;;20.03;11.17;;;8.20;99.90;;;;;;5079166;28;20202;-51
2021/05/15 04:05:40;;;;;;;19.57;11.77;;;8.20;99.90;;;;;;5112644;27;20216;-47
2021/05/15 04:08:06;;;;;;;19.13;10.37;;;8.20;99.90;;;;;;5084862;28;20194;-47
2021/05/15 04:10:32;;;;;;;18.47;10.73;;;8.20;99.90;;;;;;5079589;28;20197;-49
2021/05/15 04:13:05;;;;;;;20.20;11.17;;;8.30;99.90;;;;;;5063218;28;20216;-47
2021/05/15 04:15:41;;;;;;;19.90;12.57;;;8.30;99.90;;;;;;5083649;28;20209;-50
2021/05/15 04:18:09;;;;;;;21.03;12.53;;;8.30;99.90;;;;;;5081854;28;20897;-49
2021/05/15 04:20:37;;;;;;;21.00;12.57;;;8.30;99.90;;;;;;5078659;28;20289;-47
2021/05/15 04:23:03;;;;;;;22.40;13.83;;;8.30;99.90;;;;;;5081269;28;20198;-47
2021/05/15 04:25:29;;;;;;;21.97;13.87;;;8.30;99.90;;;;;;5080543;28;20271;-47
2021/05/15 04:27:56;;;;;;;23.70;13.50;;;8.30;99.90;;;;;;5064884;28;23010;-52
2021/05/15 04:30:23;;;;;;;20.77;12.47;;;8.30;99.90;;;;;;5086196;28;20186;-46
2021/05/15 04:32:49;;;;;;;28.13;13.13;;;8.30;99.90;;;;;;5078127;28;20280;-52
2021/05/15 04:35:16;;;;;;;23.83;12.63;;;8.30;99.90;;;;;;5087719;28;20321;-47
2021/05/15 04:37:42;;;;;;;19.50;11.77;;;8.40;99.90;;;;;;5083903;28;20240;-52
2021/05/15 04:40:09;;;;;;;23.20;12.23;;;8.40;99.90;;;;;;5085133;28;20659;-48
2021/05/15 04:42:37;;;;;;;24.67;12.97;;;8.50;99.90;;;;;;5067096;28;20205;-49
2021/05/15 04:45:04;;;;;;;24.63;13.43;;;8.50;99.90;;;;;;5067988;28;20225;-51
2021/05/15 04:47:31;;;;;;;21.50;13.37;;;8.50;99.90;;;;;;5081236;28;20210;-49
2021/05/15 04:49:58;;;;;;;21.43;12.70;;;8.50;99.90;;;;;;5076034;28;20202;-50
2021/05/15 04:52:24;;;;;;;19.73;13.10;;;8.60;99.90;;;;;;5084158;28;20190;-49
2021/05/15 04:54:50;;;;;;;26.37;13.50;;;8.60;99.90;;;;;;5083331;28;20232;-48
2021/05/15 04:57:16;;;;;;;25.60;14.70;;;8.60;99.90;;;;;;5077461;28;20349;-47
2021/05/15 04:59:43;;;;;;;24.97;13.80;;;8.60;99.90;;;;;;5069371;28;20198;-47
2021/05/15 05:02:09;;;;;;;25.03;13.77;;;8.70;99.90;;;;;;5079198;28;20186;-48
2021/05/15 05:04:36;;;;;;;24.27;13.93;;;8.70;99.90;;;;;;5080010;28;20573;-51
2021/05/15 05:07:03;;;;;;;25.50;14.30;;;8.70;99.90;;;;;;5077412;28;20775;-46
2021/05/15 05:09:29;;;;;;;27.10;13.13;;;8.80;99.90;;;;;;5077355;28;20194;-48
2021/05/15 05:11:55;;;;;;;20.80;13.93;;;8.80;99.90;;;;;;5082964;28;20206;-50
2021/05/15 05:14:21;;;;;;;19.20;12.63;;;8.80;99.90;;;;;;5076532;28;20222;-48
2021/05/15 05:16:47;;;;;;;21.27;12.83;;;8.90;99.90;;;;;;5068061;28;20293;-50
2021/05/15 05:19:14;;;;;;;20.07;13.07;;;8.90;99.90;;;;;;5073857;28;20277;-48
2021/05/15 05:21:41;;;;;;;21.43;13.33;;;8.90;99.90;;;;;;5078593;28;20194;-47
2021/05/15 05:24:09;;;;;;;24.63;13.93;;;8.90;99.90;;;;;;5077984;28;20783;-47
2021/05/15 05:26:37;;;;;;;18.67;12.10;;;8.90;99.90;;;;;;5085458;28;20245;-51
2021/05/15 05:29:08;;;;;;;25.20;12.57;;;8.90;99.90;;;;;;5074788;28;20330;-46
2021/05/15 05:31:34;;;;;;;22.63;12.30;;;8.80;99.90;;;;;;5068298;28;20701;-47
2021/05/15 05:34:00;;;;;;;20.70;12.57;;;8.80;99.90;;;;;;5080289;28;20213;-50
2021/05/15 05:36:27;;;;;;;20.03;11.97;;;8.90;99.90;;;;;;5080995;28;20854;-51
2021/05/15 05:38:54;;;;;;;17.53;11.40;;;8.90;99.90;;;;;;5081298;28;20198;-46
2021/05/15 05:41:22;;;;;;;18.67;11.53;;;8.80;99.90;;;;;;5079184;28;20194;-47
2021/05/15 05:43:49;;;;;;;16.83;11.27;;;8.80;99.90;;;;;;5082172;28;20218;-49
2021/05/15 05:46:15;;;;;;;22.37;11.23;;;8.80;99.90;;;;;;5065842;28;20218;-49
2021/05/15 05:48:41;;;;;;;18.17;11.57;;;8.80;99.90;;;;;;5084648;28;20247;-47
2021/05/15 05:51:07;;;;;;;18.27;11.17;;;8.90;99.90;;;;;;5080633;28;20322;-49
2021/05/15 05:53:33;;;;;;;22.20;11.87;;;8.90;99.90;;;;;;5083047;28;20623;-45
2021/05/15 05:56:00;;;;;;;21.43;11.67;;;8.90;99.90;;;;;;5080853;28;20258;-47
2021/05/15 05:58:26;;;;;;;21.77;12.23;;;9.00;99.90;;;;;;5079485;28;20254;-48
2021/05/15 06:00:52;;;;;;;18.90;11.30;;;9.00;99.90;;;;;;5081098;28;20510;-50
2021/05/15 06:03:18;;;;;;;18.33;11.23;;;9.00;99.90;;;;;;5069433;28;20202;-46
2021/05/15 06:05:45;;;;;;;16.23;11.40;;;9.00;99.90;;;;;;5083489;28;20229;-46
2021/05/15 06:08:11;;;;;;;15.37;9.97;;;9.00;99.90;;;;;;5077104;28;20182;-48
2021/05/15 06:10:38;;;;;;;15.07;10.67;;;9.00;99.90;;;;;;5081912;28;20217;-45
2021/05/15 06:13:06;;;;;;;16.47;10.50;;;9.00;99.90;;;;;;5076996;28;20202;-52
2021/05/15 06:15:33;;;;;;;18.00;10.83;;;9.10;99.90;;;;;;5083519;28;20209;-50
2021/05/15 06:17:59;;;;;;;20.20;11.43;;;9.00;99.90;;;;;;5067416;28;20604;-49
2021/05/15 06:20:26;;;;;;;18.60;11.63;;;9.00;99.90;;;;;;5081032;28;20192;-47
2021/05/15 06:22:52;;;;;;;19.33;10.93;;;9.10;99.90;;;;;;5082107;28;20190;-53
2021/05/15 06:25:18;;;;;;;15.87;10.07;;;9.10;99.90;;;;;;5080043;28;20988;-48
2021/05/15 06:27:44;;;;;;;17.23;10.80;;;9.10;99.90;;;;;;5078658;28;20566;-46
2021/05/15 06:30:13;;;;;;;14.33;10.23;;;9.00;99.90;;;;;;5078046;28;20258;-46
2021/05/15 06:32:39;;;;;;;17.60;10.73;;;9.00;99.90;;;;;;5069069;28;20661;-47
2021/05/15 06:35:06;;;;;;;20.80;12.93;;;9.00;99.90;;;;;;5080384;28;20695;-50
2021/05/15 06:37:32;;;;;;;18.83;11.50;;;9.10;99.90;;;;;;5082793;28;20221;-47
2021/05/15 06:39:58;;;;;;;18.10;11.90;;;9.00;99.90;;;;;;5081403;28;20202;-49
2021/05/15 06:42:24;;;;;;;17.37;11.07;;;9.00;99.90;;;;;;5074858;28;20206;-49
2021/05/15 06:44:51;;;;;;;16.90;10.10;;;9.10;99.90;;;;;;5083575;28;20225;-48
2021/05/15 06:47:18;;;;;;;23.27;13.03;;;9.10;99.90;;;;;;5065809;28;21117;-46
2021/05/15 06:49:44;;;;;;;17.23;10.97;;;9.10;99.90;;;;;;5082609;28;20265;-47
2021/05/15 06:52:10;;;;;;;16.43;10.67;;;9.10;99.90;;;;;;5079224;28;20189;-50
2021/05/15 06:54:37;;;;;;;22.23;12.53;;;9.20;99.90;;;;;;5083500;28;20571;-48
2021/05/15 06:57:03;;;;;;;23.27;13.40;;;9.20;99.90;;;;;;5080286;28;20190;-50
2021/05/15 06:59:30;;;;;;;16.40;9.33;;;9.30;99.90;;;;;;5075972;28;20321;-47
2021/05/15 07:01:56;;;;;;;16.77;10.30;;;9.20;99.90;;;;;;5077305;28;20182;-50
2021/05/15 07:04:23;;;;;;;15.27;10.33;;;9.20;99.90;;;;;;5071077;28;20805;-46
2021/05/15 07:06:49;;;;;;;20.13;10.70;;;9.30;99.90;;;;;;5082921;28;20214;-48
2021/05/15 07:09:15;;;;;;;14.50;9.83;;;9.30;99.90;;;;;;5078191;28;20216;-49
2021/05/15 07:11:41;;;;;;;16.33;10.27;;;9.30;99.90;;;;;;5083215;28;20267;-51
2021/05/15 07:14:08;;;;;;;16.73;10.13;;;9.40;99.90;;;;;;5076087;28;20245;-48
2021/05/15 07:16:34;;;;;;;16.10;9.93;;;9.40;99.90;;;;;;5081038;28;20202;-47
2021/05/15 07:19:00;;;;;;;13.87;9.97;;;9.50;99.90;;;;;;5066360;28;20213;-46
2021/05/15 07:21:27;;;;;;;18.70;9.77;;;9.50;99.90;;;;;;5081234;28;20192;-47
2021/05/15 07:23:53;;;;;;;17.27;9.20;;;9.50;99.90;;;;;;5083023;28;20308;-45
2021/05/15 07:26:19;;;;;;;15.43;8.23;;;9.50;99.90;;;;;;5079707;28;20198;-50
2021/05/15 07:28:45;;;;;;;12.40;9.13;;;9.50;99.90;;;;;;5082026;28;20763;-46
2021/05/15 07:31:12;;;;;;;13.83;10.37;;;9.60;99.90;;;;;;5073373;28;20516;-48
2021/05/15 07:33:38;;;;;;;14.87;9.40;;;9.70;99.90;;;;;;5068694;28;20210;-48
2021/05/15 07:36:05;;;;;;;16.97;10.80;;;9.80;99.90;;;;;;5073123;28;20196;-47
2021/05/15 07:38:34;;;;;;;17.13;9.37;;;9.80;99.90;;;;;;5081834;28;20687;-45
2021/05/15 07:41:00;;;;;;;16.83;9.27;;;9.90;99.90;;;;;;5079876;28;20273;-49
2021/05/15 07:43:26;;;;;;;13.13;9.43;;;9.90;99.90;;;;;;5080786;28;20193;-45
2021/05/15 07:45:54;;;;;;;14.03;8.17;;;10.00;99.90;;;;;;5077165;28;20221;-48
2021/05/15 07:48:28;;;;;;;14.07;9.43;;;10.10;99.90;;;;;;5065189;28;20214;-45
2021/05/15 07:50:54;;;;;;;12.53;8.27;;;10.10;99.90;;;;;;5081126;28;20295;-48
2021/05/15 07:53:20;;;;;;;13.07;8.70;;;10.10;99.90;;;;;;5078395;28;20197;-45
2021/05/15 07:55:49;;;;;;;12.57;8.93;;;10.10;99.90;;;;;;5082499;28;20210;-44
2021/05/15 07:58:15;;;;;;;16.17;9.90;;;10.10;99.90;;;;;;5078069;28;20186;-46
2021/05/15 08:00:41;;;;;;;13.20;8.90;;;10.10;99.90;;;;;;5081795;28;20284;-46
2021/05/15 08:03:07;;;;;;;13.53;8.90;;;10.10;99.90;;;;;;5073210;28;20679;-47
2021/05/15 08:05:33;;;;;;;12.47;9.23;;;10.20;99.90;;;;;;5067908;28;20236;-44
2021/05/15 08:08:02;;;;;;;13.40;8.93;;;10.30;99.90;;;;;;5079046;28;20795;-48
2021/05/15 08:10:28;;;;;;;14.40;8.37;;;10.40;99.90;;;;;;5079843;28;20867;-48
2021/05/15 08:12:55;;;;;;;13.27;8.23;;;10.50;99.90;;;;;;5080660;28;20220;-47
2021/05/15 08:15:22;;;;;;;14.60;9.47;;;10.50;99.90;;;;;;5078495;28;20263;-44
2021/05/15 08:17:48;;;;;;;12.30;8.77;;;10.60;99.90;;;;;;5077357;28;20206;-46
2021/05/15 08:20:14;;;;;;;16.83;10.23;;;10.70;99.90;;;;;;5063450;28;20216;-46
2021/05/15 08:22:40;;;;;;;16.03;8.93;;;10.80;99.90;;;;;;5081801;28;20267;-44
2021/05/15 08:25:08;;;;;;;15.27;9.50;;;10.80;99.90;;;;;;5079244;28;20275;-48
2021/05/15 08:27:38;;;;;;;11.63;7.97;;;10.80;99.90;;;;;;5080555;28;20634;-47
2021/05/15 08:30:06;;;;;;;16.10;9.73;;;10.90;99.90;;;;;;5079466;28;20585;-47
2021/05/15 08:32:33;;;;;;;14.07;8.47;;;10.90;99.90;;;;;;5076794;28;20205;-45
2021/05/15 08:35:00;;;;;;;19.63;9.93;;;10.90;99.90;;;;;;5080419;28;20252;-47
2021/05/15 08:37:26;;;;;;;12.40;8.67;;;11.00;99.90;;;;;;5066239;28;20192;-46
2021/05/15 08:39:52;;;;;;;15.23;9.03;;;11.00;99.90;;;;;;5077319;28;20205;-46
2021/05/15 08:42:20;;;;;;;15.47;9.00;;;11.00;99.90;;;;;;5076874;28;20201;-45
2021/05/15 08:44:47;;;;;;;16.80;10.00;;;10.90;99.90;;;;;;5082288;28;20213;-46
2021/05/15 08:47:15;;;;;;;14.07;9.77;;;11.00;99.90;;;;;;5078685;28;20212;-46
2021/05/15 08:49:43;;;;;;;12.60;9.63;;;11.00;99.90;;;;;;5077168;28;20267;-46
2021/05/15 08:52:10;;;;;;;15.40;9.20;;;11.00;99.90;;;;;;5065236;28;20683;-47
2021/05/15 08:54:37;;;;;;;14.60;10.23;;;10.90;99.90;;;;;;5085262;28;20292;-46
2021/05/15 08:57:04;;;;;;;14.63;9.07;;;10.90;99.90;;;;;;5083575;28;20186;-49
2021/05/15 08:59:30;;;;;;;16.07;9.23;;;11.00;99.90;;;;;;5083426;28;20888;-49
2021/05/15 09:01:56;;;;;;;16.30;9.80;;;10.90;99.90;;;;;;5084653;28;20209;-51
2021/05/15 09:04:24;;;;;;;15.43;9.73;;;10.90;99.90;;;;;;5079035;28;20267;-51
2021/05/15 09:06:50;;;;;;;14.87;10.23;;;11.10;99.90;;;;;;5071852;28;20218;-49
2021/05/15 09:09:17;;;;;;;17.03;10.33;;;11.20;99.90;;;;;;5081272;28;20795;-44
2021/05/15 09:11:44;;;;;;;14.77;11.07;;;11.30;99.90;;;;;;5085926;28;20273;-44
2021/05/15 09:14:14;;;;;;;15.57;10.27;;;11.50;99.90;;;;;;5081613;28;20202;-49
2021/05/15 09:16:47;;;;;;;16.20;11.07;;;11.60;99.90;;;;;;5084624;28;20198;-47
2021/05/15 09:19:18;;;;;;;14.53;10.30;;;11.60;99.90;;;;;;5075831;28;20811;-44
2021/05/15 09:21:58;;;;;;;15.03;11.20;;;11.70;99.90;;;;;;5085144;28;20269;-44
2021/05/15 09:24:29;;;;;;;15.50;10.80;;;;;;;;;;5075604;28;20218;-44
2021/05/15 09:26:55;;;;;;;15.47;11.43;;;11.90;99.90;;;;;;5083514;28;20623;-52
2021/05/15 09:29:21;;;;;;;17.40;10.13;;;12.10;99.90;;;;;;5077993;28;20281;-49
2021/05/15 09:31:48;;;;;;;23.10;11.90;;;12.20;99.90;;;;;;5081348;28;20243;-44
2021/05/15 09:34:15;;;;;;;14.37;10.47;;;12.30;99.90;;;;;;5083889;28;20212;-47
2021/05/15 09:36:43;;;;;;;22.40;12.70;;;12.30;99.90;;;;;;5076367;28;20829;-45
2021/05/15 09:39:12;;;;;;;17.50;11.43;;;12.30;99.90;;;;;;5063247;28;20279;-46
2021/05/15 09:41:41;;;;;;;16.87;10.93;;;12.50;99.90;;;;;;5079645;28;20265;-45
2021/05/15 09:44:08;;;;;;;15.33;11.23;;;12.50;99.90;;;;;;5083058;28;20263;-44
2021/05/15 09:46:36;;;;;;;16.27;10.40;;;12.60;99.90;;;;;;5080180;28;20214;-47
2021/05/15 09:49:03;;;;;;;18.40;11.80;;;12.50;99.90;;;;;;5082617;28;20194;-44
2021/05/15 09:51:29;;;;;;;18.77;11.43;;;12.60;99.90;;;;;;5074498;28;20202;-48
2021/05/15 09:53:55;;;;;;;15.70;11.33;;;12.70;99.90;;;;;;5069994;28;20228;-44
2021/05/15 09:56:29;;;;;;;14.57;11.13;;;12.80;99.90;;;;;;5082614;28;20178;-49
2021/05/15 09:58:56;;;;;;;19.10;12.27;;;12.90;99.90;;;;;;5083371;28;20208;-45
2021/05/15 10:01:23;;;;;;;16.40;11.30;;;12.90;99.90;;;;;;5083362;28;20186;-51
2021/05/15 10:03:58;;;;;;;15.77;11.17;;;13.00;99.90;;;;;;5082759;28;20205;-47
2021/05/15 10:06:25;;;;;;;18.80;11.70;;;13.20;99.90;;;;;;5080996;28;20206;-49
2021/05/15 10:08:51;;;;;;;20.17;11.80;;;13.20;99.90;;;;;;5079609;28;20947;-47
2021/05/15 10:11:20;;;;;;;19.40;12.57;;;13.30;99.90;;;;;;5069778;28;20263;-50
2021/05/15 10:13:47;;;;;;;15.47;12.27;;;13.40;99.90;;;;;;5081959;28;20222;-46
2021/05/15 10:16:14;;;;;;;15.23;11.50;;;13.40;99.90;;;;;;5084552;28;20193;-49
2021/05/15 10:18:40;;;;;;;15.73;12.23;;;13.30;99.90;;;;;;5080428;28;20194;-51
2021/05/15 10:21:06;;;;;;;14.27;12.00;;;13.50;99.90;;;;;;5084830;28;20197;-48
2021/05/15 10:23:38;;;;;;;14.27;11.50;;;13.50;99.90;;;;;;5076361;28;20205;-48
2021/05/15 10:26:06;;;;;;;13.60;10.47;;;13.30;99.90;;;;;;5069956;28;20206;-47
2021/05/15 10:28:34;;;;;;;19.57;11.87;;;13.40;99.90;;;;;;5079519;28;20198;-46
2021/05/15 10:31:10;;;;;;;15.23;11.73;;;13.60;99.90;;;;;;5083725;28;20204;-46
2021/05/15 10:33:42;;;;;;;17.03;12.97;;;13.70;99.90;;;;;;5080175;28;20254;-46
2021/05/15 10:36:19;;;;;;;17.40;13.47;;;13.90;99.90;;;;;;5083523;28;20630;-47
2021/05/15 10:38:46;;;;;;;17.77;14.70;;;14.10;99.90;;;;;;5070406;28;20216;-51
2021/05/15 10:41:17;;;;;;;20.83;14.73;;;14.30;99.90;;;;;;5067694;28;20694;-49
2021/05/15 10:43:45;;;;;;;17.97;14.27;;;14.40;99.90;;;;;;5080141;28;20943;-46
2021/05/15 10:46:31;;;;;;;19.77;15.73;;;14.40;99.90;;;;;;5083815;28;20303;-48
2021/05/15 10:49:00;;;;;;;16.90;14.20;;;14.40;99.90;;;;;;5082390;28;20190;-46
2021/05/15 10:51:36;;;;;;;22.87;16.23;;;14.50;99.90;;;;;;5081376;28;20201;-47
2021/05/15 10:54:03;;;;;;;23.80;17.30;;;14.60;99.90;;;;;;5079030;28;20221;-49
2021/05/15 10:56:31;;;;;;;18.93;14.83;;;14.90;99.90;;;;;;5063593;28;20202;-49
2021/05/15 10:59:08;;;;;;;15.83;14.20;;;15.00;99.90;;;;;;5082459;28;20251;-45
2021/05/15 11:01:53;;;;;;;18.10;14.13;;;15.00;99.90;;;;;;5079373;28;20335;-52
2021/05/15 11:04:23;;;;;;;22.73;16.43;;;14.90;99.90;;;;;;5082718;28;20210;-50
2021/05/15 11:07:04;;;;;;;20.17;16.37;;;14.90;99.90;;;;;;5081357;28;20205;-50
2021/05/15 11:09:31;;;;;;;20.00;16.30;;;15.00;99.90;;;;;;5074641;28;20216;-45
2021/05/15 11:12:08;;;;;;;22.27;16.17;;;15.00;99.90;;;;;;5067727;28;20225;-49
2021/05/15 11:14:36;;;;;;;18.80;15.50;;;15.00;99.90;;;;;;5079628;28;20205;-53
2021/05/15 11:17:23;;;;;;;18.40;16.40;;;15.00;99.90;;;;;;5082890;28;20182;-48
2021/05/15 11:19:55;;;;;;;18.83;14.33;;;15.00;99.90;;;;;;5080308;28;20900;-46
2021/05/15 11:22:34;;;;;;;17.47;14.07;;;15.00;99.90;;;;;;5081619;28;20598;-46
2021/05/15 11:25:03;;;;;;;20.80;15.20;;;15.10;99.90;;;;;;5078664;28;20213;-45
2021/05/15 11:27:30;;;;;;;17.53;15.30;;;15.30;99.90;;;;;;5065109;28;20222;-46
2021/05/15 11:30:08;;;;;;;19.57;14.13;;;15.40;99.90;;;;;;5081728;28;20190;-46
2021/05/15 11:32:35;;;;;;;14.67;11.10;;;15.50;99.90;;;;;;5079078;28;20198;-45
2021/05/15 11:35:04;;;;;;;17.53;10.47;;;15.50;99.90;;;;;;5082522;28;20209;-48
2021/05/15 11:37:30;;;;;;;15.57;11.17;;;15.50;99.90;;;;;;5079810;28;20303;-47
2021/05/15 11:39:57;;;;;;;14.23;10.87;;;;;;;;;;5079267;28;21575;-47
2021/05/15 11:42:27;;;;;;;15.07;10.93;;;;;;;;;;5062050;28;20721;-45
2021/05/15 11:44:54;;;;;;;14.67;10.23;;;;;;;;;;5072149;28;20226;-48
2021/05/15 11:47:23;;;;;;;14.47;10.73;;;;;;;;;;5081699;28;20804;-47
2021/05/15 11:49:56;;;;;;;12.77;9.50;;;;;;;;;;5072228;28;20241;-51
2021/05/15 11:52:29;;;;;;;16.93;10.93;;;;;;;;;;5078644;28;20760;-54
2021/05/15 11:54:56;;;;;;;15.17;10.57;;;;;;;;;;5075186;28;20279;-50
2021/05/15 11:57:25;;;;;;;16.07;10.97;;;;;;;;;;5060771;28;20335;-49
2021/05/15 11:59:52;;;;;;;14.90;9.07;;;;;;;;;;5082171;28;20194;-53
2021/05/15 12:02:18;;;;;;;15.80;9.37;;;;;;;;;;5078944;28;20186;-50
2021/05/15 12:04:45;;;;;;;13.10;10.30;;;16.20;99.90;;;;;;5082319;28;20214;-49
2021/05/15 12:07:15;;;;;;;11.27;9.43;;;16.40;99.90;;;;;;5078624;28;20285;-51
2021/05/15 12:09:42;;;;;;;17.07;9.97;;;16.40;99.90;;;;;;5077391;28;20202;-51
2021/05/15 12:12:10;;;;;;;13.67;10.30;;;16.50;99.90;;;;;;5076811;28;20263;-49
2021/05/15 12:14:38;;;;;;;17.03;11.73;;;16.40;99.90;;;;;;5066772;28;20221;-52
2021/05/15 12:17:06;;;;;;;16.17;10.63;;;16.50;99.90;;;;;;5077502;28;20251;-50
2021/05/15 12:19:33;;;;;;;14.83;10.10;;;16.40;99.90;;;;;;5080692;28;20190;-53
2021/05/15 12:22:01;;;;;;;15.53;10.60;;;16.40;99.90;;;;;;5081191;28;20209;-51
2021/05/15 12:24:37;;;;;;;13.20;10.17;;;16.40;99.90;;;;;;5080011;28;20727;-52
2021/05/15 12:27:11;;;;;;;12.27;9.60;;;16.50;99.90;;;;;;5075042;28;20702;-46
2021/05/15 12:29:38;;;;;;;12.37;9.90;;;16.40;99.90;;;;;;5067992;28;20700;-51
2021/05/15 12:32:05;;;;;;;14.90;10.17;;;16.30;99.90;;;;;;5080292;28;20237;-52
2021/05/15 12:34:31;;;;;;;14.93;10.37;;;16.30;99.90;;;;;;5064558;28;20198;-49
2021/05/15 12:36:57;;;;;;;15.70;10.40;;;16.20;99.90;;;;;;5065289;28;20872;-51
2021/05/15 12:39:33;;;;;;;14.50;9.67;;;16.10;99.90;;;;;;5074373;28;20908;-49